Time;durP1;ratioP1;P1;durP2;ratioP2;P2;SDS_P1;SDS_P2;PMS_P1;PMS_P2;Temp;Humidity;BMP_temperature;BMP_pressure;BME280_temperature;BME280_humidity;BME280_pressure;Samples;Min_cycle;Max_cycle;Signal;HPM_P1;HPM_P2
2022/01/04 00:01:08;;;;;;;;;;;7.80;99.90;;;;;;5060932;28;19931;-76
2022/01/04 00:03:35;;;;;;;;;;;7.80;99.90;;;;;;5062603;28;19925;-76
2022/01/04 00:06:02;;;;;;;;;;;7.80;99.90;;;;;;5064748;28;19928;-76
2022/01/04 00:08:28;;;;;;;;;;;7.80;99.90;;;;;;5055116;28;19928;-76
2022/01/04 00:11:06;;;;;;;;;;;7.90;99.90;;;;;;5068387;28;20305;-77
2022/01/04 00:13:35;;;;;;;;;;;7.90;99.90;;;;;;5083101;28;19924;-76
2022/01/04 00:16:03;;;;;;;;;;;7.90;99.90;;;;;;5070310;28;19974;-76
2022/01/04 00:18:30;;;;;;;;;;;7.80;99.90;;;;;;5065194;28;19924;-76
2022/01/04 00:20:56;;;;;;;;;;;7.80;99.90;;;;;;5069468;28;19932;-76
2022/01/04 00:23:30;;;;;;;;;;;7.80;99.90;;;;;;5059022;28;19925;-76
2022/01/04 00:25:56;;;;;;;;;;;7.80;99.90;;;;;;5055273;28;20364;-76
2022/01/04 00:28:23;;;;;;;;;;;7.80;99.90;;;;;;5060064;28;20386;-76
2022/01/04 00:30:50;;;;;;;;;;;7.80;99.90;;;;;;5064895;28;19929;-76
2022/01/04 00:33:17;;;;;;;;;;;7.80;99.90;;;;;;5064266;28;19975;-76
2022/01/04 00:35:44;;;;;;;;;;;7.80;99.90;;;;;;5070619;28;19924;-76
2022/01/04 00:38:11;;;;;;;;;;;7.80;99.90;;;;;;5060855;28;20007;-76
2022/01/04 00:40:37;;;;;;;;;;;7.80;99.90;;;;;;5064383;28;19933;-75
2022/01/04 00:43:05;;;;;;;;;;;7.80;99.90;;;;;;5064466;28;19924;-76
2022/01/04 00:45:36;;;;;;;;;;;7.80;99.90;;;;;;5065510;28;21360;-75
2022/01/04 00:50:34;;;;;;;;;;;7.80;99.90;;;;;;5063964;28;20375;-76
2022/01/04 00:53:01;;;;;;;;;;;7.80;99.90;;;;;;5054593;28;20024;-80
2022/01/04 00:55:28;;;;;;;;;;;7.80;99.90;;;;;;5072469;28;19931;-75
2022/01/04 00:57:55;;;;;;;;;;;7.80;99.90;;;;;;5057202;28;20008;-75
2022/01/04 01:00:21;;;;;;;;;;;7.80;99.90;;;;;;5056849;28;19935;-75
2022/01/04 01:02:48;;;;;;;;;;;7.80;99.90;;;;;;5058894;28;20000;-75
2022/01/04 01:05:16;;;;;;;;;;;7.80;99.90;;;;;;5062445;28;20394;-75
2022/01/04 01:07:43;;;;;;;;;;;7.80;99.90;;;;;;5053971;28;19931;-75
2022/01/04 01:12:40;;;;;;;;;;;7.80;99.90;;;;;;5062105;28;19931;-75
2022/01/04 01:15:09;;;;;;;;;;;7.80;99.90;;;;;;5060679;28;19924;-75
2022/01/04 01:17:36;;;;;;;;;;;7.80;99.90;;;;;;5065919;28;20403;-75
2022/01/04 01:20:04;;;;;;;;;;;7.90;99.90;;;;;;5067336;28;19933;-74
2022/01/04 01:22:31;;;;;;;;;;;7.90;99.90;;;;;;5064062;28;19940;-75
2022/01/04 01:25:00;;;;;;;;;;;7.90;99.90;;;;;;5060483;28;20019;-75
2022/01/04 01:27:27;;;;;;;;;;;7.90;99.90;;;;;;5066063;28;19924;-75
2022/01/04 01:30:03;;;;;;;;;;;7.90;99.90;;;;;;5061416;28;19931;-75
2022/01/04 01:32:30;;;;;;;;;;;7.90;99.90;;;;;;5057209;28;19928;-74
2022/01/04 01:35:02;;;;;;;;;;;8.00;99.90;;;;;;5055142;28;19931;-74
2022/01/04 01:37:29;;;;;;;;;;;8.00;99.90;;;;;;5065907;28;19925;-74
2022/01/04 01:39:55;;;;;;;;;;;8.00;99.90;;;;;;5044484;28;20028;-76
2022/01/04 01:42:24;;;;;;;;;;;8.00;99.90;;;;;;5073307;28;20065;-76
2022/01/04 01:44:51;;;;;;;;;;;8.00;99.90;;;;;;5060829;28;19925;-77
2022/01/04 01:47:18;;;;;;;;;;;8.00;99.90;;;;;;5069060;28;19924;-76
2022/01/04 01:49:45;;;;;;;;;;;8.00;99.90;;;;;;5058719;28;20184;-76
2022/01/04 01:52:12;;;;;;;;;;;8.00;99.90;;;;;;5070875;28;19934;-76
2022/01/04 01:54:39;;;;;;;;;;;8.10;99.90;;;;;;5058325;28;19925;-76
2022/01/04 01:57:06;;;;;;;;;;;8.10;99.90;;;;;;5066311;28;19932;-76
2022/01/04 01:59:33;;;;;;;;;;;8.10;99.90;;;;;;5060033;28;20016;-76
2022/01/04 02:02:02;;;;;;;;;;;8.10;99.90;;;;;;5056493;28;20069;-76
2022/01/04 02:04:32;;;;;;;;;;;8.10;99.90;;;;;;5065173;28;20576;-76
2022/01/04 02:07:01;;;;;;;;;;;8.10;99.90;;;;;;5053807;28;19924;-76
2022/01/04 02:09:28;;;;;;;;;;;8.10;99.90;;;;;;5059246;28;20390;-77
2022/01/04 02:11:55;;;;;;;;;;;8.20;99.90;;;;;;5063291;28;20393;-77
2022/01/04 02:14:24;;;;;;;;;;;8.20;99.90;;;;;;5060767;28;19932;-76
2022/01/04 02:16:50;;;;;;;;;;;8.20;99.90;;;;;;5057382;28;20294;-76
2022/01/04 02:19:17;;;;;;;;;;;8.20;99.90;;;;;;5063414;28;19924;-76
2022/01/04 02:21:44;;;;;;;;;;;8.20;99.90;;;;;;5066472;28;19924;-74
2022/01/04 02:24:13;;;;;;;;;;;8.30;99.90;;;;;;5063372;28;19933;-74
2022/01/04 02:26:40;;;;;;;;;;;8.30;99.90;;;;;;5062497;28;19964;-73
2022/01/04 02:29:07;;;;;;;;;;;8.40;99.90;;;;;;5065830;28;19971;-74
2022/01/04 02:31:37;;;;;;;;;;;8.40;99.90;;;;;;5061131;28;19925;-74
2022/01/04 02:34:04;;;;;;;;;;;8.40;99.90;;;;;;5062805;28;19924;-74
2022/01/04 02:36:31;;;;;;;;;;;8.40;99.90;;;;;;5058914;28;19925;-73
2022/01/04 02:39:03;;;;;;;;;;;8.40;99.90;;;;;;5055694;28;20321;-75
2022/01/04 02:41:32;;;;;;;;;;;8.50;99.90;;;;;;5063306;28;19946;-75
2022/01/04 02:43:59;;;;;;;;;;;8.50;99.90;;;;;;5065172;28;19924;-75
2022/01/04 02:46:26;;;;;;;;;;;8.50;99.90;;;;;;5077448;28;19924;-76
2022/01/04 02:48:52;;;;;;;;;;;8.50;99.90;;;;;;5053503;28;19929;-76
2022/01/04 02:51:19;;;;;;;;;;;8.60;99.90;;;;;;5064550;28;19932;-76
2022/01/04 02:53:46;;;;;;;;;;;8.60;99.90;;;;;;5058916;28;19929;-75
2022/01/04 02:56:13;;;;;;;;;;;8.60;99.90;;;;;;5051478;28;20322;-76
2022/01/04 02:58:40;;;;;;;;;;;8.70;99.90;;;;;;5056698;28;19924;-76
2022/01/04 03:01:07;;;;;;;;;;;8.70;99.90;;;;;;5056634;28;19924;-75
2022/01/04 03:03:34;;;;;;;;;;;8.70;99.90;;;;;;5058217;28;20023;-75
2022/01/04 03:06:01;;;;;;;;;;;8.80;99.90;;;;;;5054321;28;19935;-75
2022/01/04 03:08:27;;;;;;;;;;;8.80;99.90;;;;;;5060435;28;19978;-75
2022/01/04 03:10:54;;;;;;;;;;;8.80;99.90;;;;;;5051291;28;19947;-74
2022/01/04 03:13:24;;;;;;;;;;;8.80;99.90;;;;;;5051968;28;19943;-75
2022/01/04 03:15:50;;;;;;;;;;;8.80;99.90;;;;;;5060433;28;19947;-74
2022/01/04 03:18:17;;;;;;;;;;;8.80;99.90;;;;;;5055383;28;19924;-75
2022/01/04 03:20:44;;;;;;;;;;;8.80;99.90;;;;;;5063656;28;20424;-75
2022/01/04 03:23:10;;;;;;;;;;;8.80;99.90;;;;;;5061492;28;20449;-76
2022/01/04 03:25:37;;;;;;;;;;;8.90;99.90;;;;;;5056696;28;19947;-75
2022/01/04 03:28:05;;;;;;;;;;;8.90;99.90;;;;;;5055686;28;19951;-75
2022/01/04 03:30:31;;;;;;;;;;;8.90;99.90;;;;;;5062801;28;20011;-75
2022/01/04 03:32:58;;;;;;;;;;;8.90;99.90;;;;;;5056942;28;19933;-74
2022/01/04 03:35:25;;;;;;;;;;;8.90;99.90;;;;;;5056072;28;19931;-75
2022/01/04 03:37:52;;;;;;;;;;;8.90;99.90;;;;;;5052666;28;20020;-75
2022/01/04 03:40:18;;;;;;;;;;;8.90;99.90;;;;;;5051517;28;20345;-75
2022/01/04 03:42:45;;;;;;;;;;;8.90;99.90;;;;;;5059321;28;20393;-75
2022/01/04 03:45:12;;;;;;;;;;;8.90;99.90;;;;;;5057893;28;19925;-75
2022/01/04 03:47:39;;;;;;;;;;;8.90;99.90;;;;;;5061080;28;19932;-75
2022/01/04 03:50:05;;;;;;;;;;;8.90;99.90;;;;;;5063907;28;20323;-75
2022/01/04 03:52:35;;;;;;;;;;;8.90;99.90;;;;;;5052111;28;19924;-75
2022/01/04 03:55:06;;;;;;;;;;;8.90;99.90;;;;;;5057056;28;20023;-75
2022/01/04 03:57:33;;;;;;;;;;;8.90;99.90;;;;;;5061174;28;20015;-75
2022/01/04 04:00:00;;;;;;;;;;;8.90;99.90;;;;;;5063556;28;19925;-75
2022/01/04 04:02:26;;;;;;;;;;;8.90;99.90;;;;;;5059546;28;19947;-75
2022/01/04 04:04:53;;;;;;;;;;;8.90;99.90;;;;;;5060122;28;19925;-75
2022/01/04 04:07:20;;;;;;;;;;;8.90;99.90;;;;;;5063468;28;19939;-75
2022/01/04 04:09:49;;;;;;;;;;;8.90;99.90;;;;;;5063402;28;19966;-76
2022/01/04 04:12:16;;;;;;;;;;;8.90;99.90;;;;;;5060680;28;19925;-75
2022/01/04 04:14:42;;;;;;;;;;;8.90;99.90;;;;;;5056182;28;19931;-75
2022/01/04 04:17:13;;;;;;;;;;;8.90;99.90;;;;;;5063170;28;20059;-75
2022/01/04 04:19:40;;;;;;;;;;;8.90;99.90;;;;;;5057970;28;19928;-75
2022/01/04 04:22:07;;;;;;;;;;;8.90;99.90;;;;;;5054141;28;20015;-76
2022/01/04 04:24:33;;;;;;;;;;;8.90;99.90;;;;;;5054997;28;19928;-75
2022/01/04 04:27:00;;;;;;;;;;;8.90;99.90;;;;;;5052990;28;20387;-75
2022/01/04 04:29:26;;;;;;;;;;;8.90;99.90;;;;;;5062692;28;19931;-75
2022/01/04 04:31:53;;;;;;;;;;;8.80;99.90;;;;;;5055740;28;20570;-75
2022/01/04 04:34:20;;;;;;;;;;;8.80;99.90;;;;;;5069392;28;19925;-75
2022/01/04 04:36:46;;;;;;;;;;;8.80;99.90;;;;;;5072719;28;20347;-76
2022/01/04 04:39:17;;;;;;;;;;;8.80;99.90;;;;;;5065749;28;20463;-75
2022/01/04 04:41:44;;;;;;;;;;;8.80;99.90;;;;;;5059416;28;20046;-75
2022/01/04 04:44:14;;;;;;;;;;;8.80;99.90;;;;;;5056346;28;20039;-74
2022/01/04 04:46:40;;;;;;;;;;;8.80;99.90;;;;;;5054341;28;20019;-74
2022/01/04 04:49:07;;;;;;;;;;;8.80;99.90;;;;;;5053684;28;19943;-74
2022/01/04 04:51:34;;;;;;;;;;;8.80;99.90;;;;;;5064302;28;20355;-74
2022/01/04 04:54:00;;;;;;;;;;;8.80;99.90;;;;;;5065534;28;19925;-74
2022/01/04 04:56:27;;;;;;;;;;;8.80;99.90;;;;;;5055651;28;19924;-74
2022/01/04 04:58:54;;;;;;;;;;;8.80;99.90;;;;;;5062534;28;19928;-75
2022/01/04 05:01:23;;;;;;;;;;;8.80;99.90;;;;;;5062410;28;19931;-73
2022/01/04 05:03:52;;;;;;;;;;;8.80;99.90;;;;;;5059391;28;19925;-72
2022/01/04 05:06:19;;;;;;;;;;;8.80;99.90;;;;;;5060172;28;19931;-75
2022/01/04 05:08:45;;;;;;;;;;;8.80;99.90;;;;;;5053277;28;19924;-73
2022/01/04 05:11:12;;;;;;;;;;;8.80;99.90;;;;;;5055094;28;20254;-73
2022/01/04 05:13:39;;;;;;;;;;;8.80;99.90;;;;;;5065055;28;19924;-73
2022/01/04 05:16:08;;;;;;;;;;;8.80;99.90;;;;;;5056803;28;19994;-73
2022/01/04 05:18:34;;;;;;;;;;;8.80;99.90;;;;;;5053174;28;19951;-76
2022/01/04 05:21:01;;;;;;;;;;;8.70;99.90;;;;;;5060275;28;19924;-74
2022/01/04 05:23:28;;;;;;;;;;;8.70;99.90;;;;;;5052513;28;19987;-73
2022/01/04 05:25:55;;;;;;;;;;;8.70;99.90;;;;;;5063883;28;19932;-73
2022/01/04 05:28:22;;;;;;;;;;;8.70;99.90;;;;;;5057313;28;19931;-74
2022/01/04 05:30:48;;;;;;;;;;;8.70;99.90;;;;;;5059421;28;19951;-76
2022/01/04 05:33:15;;;;;;;;;;;8.70;99.90;;;;;;5056413;28;19925;-76
2022/01/04 05:35:42;;;;;;;;;;;8.70;99.90;;;;;;5059318;28;19924;-73
2022/01/04 05:38:09;;;;;;;;;;;8.70;99.90;;;;;;5052236;28;20008;-73
2022/01/04 05:40:35;;;;;;;;;;;8.70;99.90;;;;;;5062245;28;20569;-73
2022/01/04 05:43:03;;;;;;;;;;;8.70;99.90;;;;;;5056793;28;19936;-73
2022/01/04 05:45:30;;;;;;;;;;;8.70;99.90;;;;;;5056559;28;19931;-73
2022/01/04 05:47:57;;;;;;;;;;;8.70;99.90;;;;;;5055541;28;19924;-74
2022/01/04 05:50:24;;;;;;;;;;;8.70;99.90;;;;;;5055198;28;19987;-73
2022/01/04 05:52:51;;;;;;;;;;;8.70;99.90;;;;;;5053132;28;20390;-73
2022/01/04 05:55:17;;;;;;;;;;;8.70;99.90;;;;;;5055739;28;20418;-73
2022/01/04 05:57:44;;;;;;;;;;;8.70;99.90;;;;;;5052679;28;19950;-73
2022/01/04 06:00:11;;;;;;;;;;;8.70;99.90;;;;;;5054116;28;19967;-73
2022/01/04 06:02:38;;;;;;;;;;;8.70;99.90;;;;;;5057337;28;19924;-72
2022/01/04 06:05:04;;;;;;;;;;;8.70;99.90;;;;;;5062101;28;19929;-73
2022/01/04 06:07:31;;;;;;;;;;;8.70;99.90;;;;;;5056737;28;20307;-73
2022/01/04 06:09:58;;;;;;;;;;;8.70;99.90;;;;;;5056493;28;19932;-73
2022/01/04 06:14:53;;;;;;;;;;;8.70;99.90;;;;;;5054678;28;20334;-72
2022/01/04 06:17:23;;;;;;;;;;;8.70;99.90;;;;;;5058925;28;19928;-73
2022/01/04 06:19:50;;;;;;;;;;;8.70;99.90;;;;;;5057703;28;19928;-73
2022/01/04 06:22:16;;;;;;;;;;;8.60;99.90;;;;;;5059899;28;19924;-72
2022/01/04 06:24:43;;;;;;;;;;;8.70;99.90;;;;;;5050648;28;19939;-73
2022/01/04 06:27:10;;;;;;;;;;;8.60;99.90;;;;;;5057435;28;20336;-72
2022/01/04 06:29:38;;;;;;;;;;;8.60;99.90;;;;;;5068252;28;19924;-73
2022/01/04 06:32:05;;;;;;;;;;;8.60;99.90;;;;;;5052781;28;19939;-72
2022/01/04 06:34:33;;;;;;;;;;;8.60;99.90;;;;;;5057253;28;19933;-71
2022/01/04 06:37:03;;;;;;;;;;;8.60;99.90;;;;;;5066810;28;19930;-72
2022/01/04 06:39:29;;;;;;;;;;;8.60;99.90;;;;;;5059129;28;19929;-72
2022/01/04 06:41:56;;;;;;;;;;;8.60;99.90;;;;;;5056408;28;20019;-72
2022/01/04 06:44:29;;;;;;;;;;;8.60;99.90;;;;;;5055111;28;19960;-72
2022/01/04 06:46:56;;;;;;;;;;;8.60;99.90;;;;;;5066770;28;20471;-72
2022/01/04 06:49:23;;;;;;;;;;;8.60;99.90;;;;;;5059688;28;19958;-71
2022/01/04 06:51:50;;;;;;;;;;;8.60;99.90;;;;;;5063691;28;19925;-72
2022/01/04 06:54:18;;;;;;;;;;;8.60;99.90;;;;;;5059810;28;20410;-72
2022/01/04 06:56:46;;;;;;;;;;;8.60;99.90;;;;;;5043392;28;19963;-72
2022/01/04 06:59:12;;;;;;;;;;;8.60;99.90;;;;;;5056121;28;19933;-72
2022/01/04 07:01:42;;;;;;;;;;;8.60;99.90;;;;;;5055141;28;19936;-72
2022/01/04 07:04:09;;;;;;;;;;;8.60;99.90;;;;;;5056272;28;19968;-72
2022/01/04 07:06:36;;;;;;;;;;;8.60;99.90;;;;;;5052658;28;19932;-72
2022/01/04 07:09:04;;;;;;;;;;;8.60;99.90;;;;;;5046504;28;19929;-72
2022/01/04 07:11:31;;;;;;;;;;;8.60;99.90;;;;;;5050913;28;19926;-71
2022/01/04 07:13:58;;;;;;;;;;;8.60;99.90;;;;;;5051555;28;19925;-72
2022/01/04 07:16:27;;;;;;;;;;;8.60;99.90;;;;;;5052583;28;22758;-74
2022/01/04 07:18:54;;;;;;;;;;;8.60;99.90;;;;;;5045759;28;20453;-74
2022/01/04 07:21:21;;;;;;;;;;;8.60;99.90;;;;;;5051149;28;19935;-73
2022/01/04 07:23:48;;;;;;;;;;;8.60;99.90;;;;;;5056660;28;19931;-74
2022/01/04 07:26:16;;;;;;;;;;;8.70;99.90;;;;;;5051999;28;20748;-73
2022/01/04 07:28:47;;;;;;;;;;;8.70;99.90;;;;;;5057613;28;20420;-74
2022/01/04 07:31:14;;;;;;;;;;;8.70;99.90;;;;;;5051423;28;20683;-74
2022/01/04 07:33:41;;;;;;;;;;;8.60;99.90;;;;;;5050066;28;19925;-72
2022/01/04 07:36:08;;;;;;;;;;;8.60;99.90;;;;;;5057154;28;20639;-72
2022/01/04 07:38:38;;;;;;;;;;;8.60;99.90;;;;;;5062665;28;20278;-72
2022/01/04 07:41:05;;;;;;;;;;;8.50;99.90;;;;;;5057708;28;19924;-72
2022/01/04 07:43:32;;;;;;;;;;;8.30;99.90;;;;;;5060744;28;20673;-72
2022/01/04 07:45:59;;;;;;;;;;;8.00;99.90;;;;;;5062396;28;20012;-73
2022/01/04 07:48:26;;;;;;;;;;;7.90;99.90;;;;;;5061090;28;19931;-73
2022/01/04 07:50:55;;;;;;;;;;;7.80;99.90;;;;;;5058022;28;19925;-71
2022/01/04 07:53:27;;;;;;;;;;;7.70;99.90;;;;;;5064046;28;19955;-70
2022/01/04 07:55:54;;;;;;;;;;;7.60;99.90;;;;;;5065304;28;19932;-71
2022/01/04 07:58:22;;;;;;;;;;;7.50;99.90;;;;;;5059084;28;20027;-71
2022/01/04 08:00:49;;;;;;;;;;;7.50;99.90;;;;;;5053417;28;19967;-71
2022/01/04 08:03:16;;;;;;;;;;;7.40;99.90;;;;;;5041667;28;20325;-71
2022/01/04 08:05:45;;;;;;;;;;;7.40;99.90;;;;;;5063611;28;19925;-73
2022/01/04 08:08:12;;;;;;;;;;;7.40;99.90;;;;;;5058121;28;20415;-73
2022/01/04 08:10:39;;;;;;;;;;;7.40;99.90;;;;;;5049254;28;19948;-73
2022/01/04 08:13:05;;;;;;;;;;;7.30;99.90;;;;;;5048021;28;19925;-73
2022/01/04 08:15:32;;;;;;;;;;;7.30;99.90;;;;;;5049791;28;20653;-73
2022/01/04 08:17:59;;;;;;;;;;;7.20;99.90;;;;;;5055503;28;20695;-71
2022/01/04 08:20:26;;;;;;;;;;;7.20;99.90;;;;;;5058525;28;19944;-71
2022/01/04 08:22:59;;;;;;;;;;;7.10;99.90;;;;;;5058718;28;20007;-71
2022/01/04 08:25:25;;;;;;;;;;;7.10;99.90;;;;;;5069147;28;20011;-70
2022/01/04 08:27:52;;;;;;;;;;;7.10;99.90;;;;;;5062293;28;20340;-70
2022/01/04 08:30:19;;;;;;;;;;;7.00;99.90;;;;;;5065142;28;19925;-70
2022/01/04 08:32:46;;;;;;;;;;;7.00;99.90;;;;;;5060610;28;20385;-71
2022/01/04 08:35:12;;;;;;;;;;;7.00;99.90;;;;;;5064192;28;19967;-72
2022/01/04 08:37:39;;;;;;;;;;;7.00;99.90;;;;;;5052985;28;20401;-73
2022/01/04 08:40:06;;;;;;;;;;;7.00;99.90;;;;;;5059071;28;19940;-73
2022/01/04 08:42:34;;;;;;;;;;;7.00;99.90;;;;;;5057362;28;19924;-73
2022/01/04 08:45:01;;;;;;;;;;;7.00;99.90;;;;;;5054734;28;20027;-73
2022/01/04 08:47:34;;;;;;;;;;;7.00;99.90;;;;;;5056208;28;19925;-73
2022/01/04 08:50:01;;;;;;;;;;;7.10;99.90;;;;;;5063358;28;19985;-73
2022/01/04 08:52:28;;;;;;;;;;;7.10;99.90;;;;;;5041073;28;20661;-73
2022/01/04 08:54:59;;;;;;;;;;;7.20;99.90;;;;;;5055893;28;20257;-73
2022/01/04 08:57:26;;;;;;;;;;;7.20;99.90;;;;;;5060145;28;19925;-73
2022/01/04 08:59:54;;;;;;;;;;;7.20;99.90;;;;;;5057533;28;19924;-73
2022/01/04 09:02:22;;;;;;;;;;;7.20;99.90;;;;;;5058383;28;19937;-74
2022/01/04 09:04:49;;;;;;;;;;;7.20;99.90;;;;;;5060436;28;19943;-73
2022/01/04 09:07:16;;;;;;;;;;;7.20;99.90;;;;;;5060914;28;19983;-73
2022/01/04 09:09:43;;;;;;;;;;;7.20;99.90;;;;;;5059396;28;19924;-73
2022/01/04 09:12:30;;;;;;;;;;;7.20;99.90;;;;;;5051881;28;20007;-73
2022/01/04 09:15:16;;;;;;;;;;;7.10;99.90;;;;;;5056293;28;19940;-73
2022/01/04 09:20:28;;;;;;;;;;;7.10;99.90;;;;;;5058396;28;20031;-73
2022/01/04 09:22:56;;;;;;;;;;;7.10;99.90;;;;;;5051321;28;19992;-73
2022/01/04 09:25:23;;;;;;;;;;;7.10;99.90;;;;;;5042553;28;19924;-73
2022/01/04 09:27:50;;;;;;;;;;;7.10;99.90;;;;;;5063686;28;19925;-73
2022/01/04 09:30:17;;;;;;;;;;;7.10;99.90;;;;;;5055467;28;19928;-73
2022/01/04 09:32:43;;;;;;;;;;;7.10;99.90;;;;;;5054303;28;19932;-73
2022/01/04 09:35:12;;;;;;;;;;;7.10;99.90;;;;;;5053318;28;19931;-73
2022/01/04 09:37:39;;;;;;;;;;;7.00;99.90;;;;;;5051996;28;19925;-74
2022/01/04 09:40:07;;;;;;;;;;;7.10;99.90;;;;;;5064263;28;19932;-73
2022/01/04 09:42:34;;;;;;;;;;;7.20;99.90;;;;;;5055672;28;19931;-73
2022/01/04 09:45:01;;;;;;;;;;;7.10;99.90;;;;;;5056530;28;20016;-74
2022/01/04 09:47:30;;;;;;;;;;;7.10;99.90;;;;;;5060099;28;19925;-74
2022/01/04 09:49:59;;;;;;;;;;;7.10;99.90;;;;;;5039897;28;19996;-73
2022/01/04 09:52:28;;;;;;;;;;;7.10;99.90;;;;;;5054373;28;20466;-73
2022/01/04 09:54:55;;;;;;;;;;;7.10;99.90;;;;;;5054257;28;19932;-73
2022/01/04 09:57:22;;;;;;;;;;;7.10;99.90;;;;;;5050037;28;19933;-74
2022/01/04 09:59:49;;;;;;;;;;;7.10;99.90;;;;;;5050235;28;19925;-73
2022/01/04 10:02:18;;;;;;;;;;;7.10;99.90;;;;;;5057657;28;19924;-73
2022/01/04 10:04:45;;;;;;;;;;;7.10;99.90;;;;;;5054053;28;20342;-73
2022/01/04 10:07:20;;;;;;;;;;;7.10;99.90;;;;;;5038408;28;20469;-73
2022/01/04 10:09:48;;;;;;;;;;;7.10;99.90;;;;;;5048505;28;19934;-73
2022/01/04 10:12:16;;;;;;;;;;;7.00;99.90;;;;;;5051000;28;19968;-73
2022/01/04 10:14:47;;;;;;;;;;;7.00;99.90;;;;;;5057877;28;19929;-72
2022/01/04 10:17:16;;;;;;;;;;;7.00;99.90;;;;;;5054457;28;20259;-73
2022/01/04 10:19:43;;;;;;;;;;;7.00;99.90;;;;;;5042855;28;20690;-73
2022/01/04 10:22:11;;;;;;;;;;;7.00;99.90;;;;;;5057277;28;20014;-71
2022/01/04 10:24:37;;;;;;;;;;;7.00;99.90;;;;;;5060387;28;19924;-71
2022/01/04 10:27:26;;;;;;;;;;;7.00;99.90;;;;;;5056882;28;20144;-71
2022/01/04 10:30:08;;;;;;;;;;;7.00;99.90;;;;;;5058265;28;20329;-70
2022/01/04 10:32:44;;;;;;;;;;;7.10;99.90;;;;;;5057771;28;20379;-70
2022/01/04 10:35:10;;;;;;;;;;;7.00;99.90;;;;;;5052063;28;19925;-70
2022/01/04 10:37:38;;;;;;;;;;;7.00;99.90;;;;;;5058859;28;19931;-70
2022/01/04 10:40:10;;;;;;;;;;;7.00;99.90;;;;;;5057105;28;20018;-71
2022/01/04 10:42:36;;;;;;;;;;;6.90;99.90;;;;;;5056694;28;19925;-72
2022/01/04 10:45:20;;;;;;;;;;;7.00;99.90;;;;;;5044287;28;20012;-71
2022/01/04 10:47:47;;;;;;;;;;;6.90;99.90;;;;;;5056894;28;19925;-72
2022/01/04 10:50:27;;;;;;;;;;;6.90;99.90;;;;;;5056408;28;19933;-71
2022/01/04 10:52:54;;;;;;;;;;;6.80;99.90;;;;;;5050406;28;19932;-71
2022/01/04 10:55:21;;;;;;;;;;;6.80;99.90;;;;;;5043882;28;19929;-71
2022/01/04 10:57:48;;;;;;;;;;;6.80;99.90;;;;;;5059473;28;19931;-71
2022/01/04 11:00:16;;;;;;;;;;;6.70;99.90;;;;;;5062316;28;19929;-70
2022/01/04 11:02:43;;;;;;;;;;;6.60;99.90;;;;;;5067298;28;20015;-71
2022/01/04 11:05:11;;;;;;;;;;;6.50;99.90;;;;;;5056575;28;19925;-71
2022/01/04 11:07:55;;;;;;;;;;;6.40;99.90;;;;;;5049469;28;19951;-71
2022/01/04 11:10:25;;;;;;;;;;;6.30;99.90;;;;;;5049732;28;19924;-71
2022/01/04 11:12:55;;;;;;;;;;;6.30;99.90;;;;;;5039582;28;20395;-72
2022/01/04 11:15:22;;;;;;;;;;;6.20;99.90;;;;;;5052230;28;19925;-72
2022/01/04 11:17:53;;;;;;;;;;;6.20;99.90;;;;;;5060787;28;20016;-71
2022/01/04 11:20:20;;;;;;;;;;;6.10;99.90;;;;;;5061103;28;20019;-71
2022/01/04 11:22:48;;;;;;;;;;;6.00;99.90;;;;;;5052141;28;20487;-72
2022/01/04 11:25:16;;;;;;;;;;;5.90;99.90;;;;;;5055454;28;19933;-71
2022/01/04 11:27:43;;;;;;;;;;;5.90;99.90;;;;;;5056534;28;19940;-72
2022/01/04 11:30:14;;;;;;;;;;;5.90;99.90;;;;;;5051515;28;20011;-73
2022/01/04 11:32:41;;;;;;;;;;;5.80;99.90;;;;;;5052812;28;19955;-72
2022/01/04 11:35:21;;;;;;;;;;;5.80;99.90;;;;;;5054191;28;19924;-72
2022/01/04 11:37:52;;;;;;;;;;;5.80;99.90;;;;;;5059353;28;20374;-72
2022/01/04 11:40:27;;;;;;;;;;;5.80;99.90;;;;;;5065734;28;20024;-72
2022/01/04 11:42:54;;;;;;;;;;;5.80;99.90;;;;;;5055835;28;20405;-72
2022/01/04 11:45:37;;;;;;;;;;;5.80;99.90;;;;;;5056613;28;19939;-71
2022/01/04 11:48:23;;;;;;;;;;;5.80;99.90;;;;;;5055253;28;20428;-72
2022/01/04 11:50:49;;;;;;;;;;;5.80;99.90;;;;;;5054185;28;19931;-72
2022/01/04 11:53:17;;;;;;;;;;;5.80;99.90;;;;;;5059628;28;19994;-72
2022/01/04 11:55:51;;;;;;;;;;;5.80;99.90;;;;;;5068548;28;20145;-72
2022/01/04 11:58:20;;;;;;;;;;;5.80;99.90;;;;;;5062343;28;19925;-72
2022/01/04 12:00:56;;;;;;;;;;;5.90;99.90;;;;;;5059558;28;19960;-72
2022/01/04 12:03:37;;;;;;;;;;;5.90;99.90;;;;;;5055930;28;19936;-72
2022/01/04 12:06:05;;;;;;;;;;;5.90;99.90;;;;;;5041110;28;19928;-71
2022/01/04 12:08:33;;;;;;;;;;;5.90;99.90;;;;;;5057496;28;19931;-72
2022/01/04 12:11:00;;;;;;;;;;;5.90;99.90;;;;;;5062914;28;20054;-71
2022/01/04 12:13:48;;;;;;;;;;;5.90;99.90;;;;;;5056824;28;19924;-71
2022/01/04 12:16:15;;;;;;;;;;;5.90;99.90;;;;;;5057701;28;20356;-71
2022/01/04 12:18:45;;;;;;;;;;;5.90;99.90;;;;;;5049518;28;19931;-71
2022/01/04 12:21:14;;;;;;;;;;;5.80;99.90;;;;;;5056966;28;19932;-71
2022/01/04 12:23:48;;;;;;;;;;;5.90;99.90;;;;;;5056811;28;19929;-71
2022/01/04 12:26:15;;;;;;;;;;;5.90;99.90;;;;;;5052952;28;20372;-71
2022/01/04 12:28:44;;;;;;;;;;;5.90;99.90;;;;;;5056380;28;19924;-71
2022/01/04 12:31:17;;;;;;;;;;;5.90;99.90;;;;;;5062812;28;19935;-71
2022/01/04 12:33:50;;;;;;;;;;;5.90;99.90;;;;;;5057273;28;19936;-71
2022/01/04 12:36:27;;;;;;;;;;;5.80;99.90;;;;;;5056266;28;19924;-71
2022/01/04 12:38:55;;;;;;;;;;;5.80;99.90;;;;;;5054445;28;19938;-72
2022/01/04 12:41:22;;;;;;;;;;;5.90;99.90;;;;;;5058733;28;20472;-72
2022/01/04 12:43:50;;;;;;;;;;;5.90;99.90;;;;;;5061487;28;19928;-72
2022/01/04 12:46:30;;;;;;;;;;;5.90;99.90;;;;;;5035045;28;19925;-72
2022/01/04 12:49:01;;;;;;;;;;;5.90;99.90;;;;;;5056165;28;21317;-72
2022/01/04 12:51:27;;;;;;;;;;;5.90;99.90;;;;;;5056470;28;19924;-72
2022/01/04 12:53:55;;;;;;;;;;;6.00;99.90;;;;;;5046559;28;19933;-72
2022/01/04 12:56:21;;;;;;;;;;;5.90;99.90;;;;;;5046763;28;19925;-71
2022/01/04 12:58:48;;;;;;;;;;;5.90;99.90;;;;;;5051058;28;20050;-72
2022/01/04 13:01:21;;;;;;;;;;;5.90;99.90;;;;;;5055808;28;20324;-72
2022/01/04 13:03:50;;;;;;;;;;;5.90;99.90;;;;;;5053075;28;19925;-72
2022/01/04 13:06:16;;;;;;;;;;;5.90;99.90;;;;;;5054169;28;19929;-73
2022/01/04 13:08:53;;;;;;;;;;;5.90;99.90;;;;;;5055823;28;19928;-72
2022/01/04 13:11:23;;;;;;;;;;;5.90;99.90;;;;;;5057218;28;19960;-72
2022/01/04 13:14:07;;;;;;;;;;;6.00;99.90;;;;;;5060428;28;19925;-72
2022/01/04 13:16:34;;;;;;;;;;;5.90;99.90;;;;;;5053432;28;19932;-72
2022/01/04 13:19:14;;;;;;;;;;;5.80;99.90;;;;;;5055454;28;19924;-72
2022/01/04 13:21:52;;;;;;;;;;;5.90;99.90;;;;;;5062113;28;20011;-72
2022/01/04 13:24:28;;;;;;;;;;;5.90;99.90;;;;;;5053617;28;20368;-72
2022/01/04 13:27:17;;;;;;;;;;;5.90;99.90;;;;;;5055477;28;19924;-72
2022/01/04 13:29:48;;;;;;;;;;;5.90;99.90;;;;;;5056062;28;19925;-72
2022/01/04 13:32:20;;;;;;;;;;;5.90;99.90;;;;;;5045039;28;19925;-72
2022/01/04 13:34:46;;;;;;;;;;;5.90;99.90;;;;;;5063618;28;19925;-72
2022/01/04 13:37:13;;;;;;;;;;;5.90;99.90;;;;;;5062175;28;19925;-72
2022/01/04 13:39:40;;;;;;;;;;;5.90;99.90;;;;;;5058100;28;19935;-72
2022/01/04 13:42:36;;;;;;;;;;;5.90;99.90;;;;;;5055221;28;20032;-72
2022/01/04 13:45:05;;;;;;;;;;;5.90;99.90;;;;;;5055693;28;19925;-72
2022/01/04 13:47:32;;;;;;;;;;;5.80;99.90;;;;;;5057272;28;19929;-72
2022/01/04 13:50:08;;;;;;;;;;;5.70;99.90;;;;;;5062728;28;19972;-72
2022/01/04 13:52:35;;;;;;;;;;;5.70;99.90;;;;;;5044412;28;20401;-73
2022/01/04 13:55:05;;;;;;;;;;;5.70;99.90;;;;;;5055362;28;19936;-73
2022/01/04 13:57:32;;;;;;;;;;;5.70;99.90;;;;;;5062221;28;20003;-73
2022/01/04 14:00:18;;;;;;;;;;;5.70;99.90;;;;;;5057877;28;19931;-73
2022/01/04 14:02:45;;;;;;;;;;;5.70;99.90;;;;;;5049903;28;19978;-72
2022/01/04 14:05:12;;;;;;;;;;;5.70;99.90;;;;;;5061323;28;20043;-73
2022/01/04 14:07:39;;;;;;;;;;;5.70;99.90;;;;;;5059700;28;20542;-73
2022/01/04 14:10:11;;;;;;;;;;;5.70;99.90;;;;;;5039165;28;20024;-72
2022/01/04 14:12:43;;;;;;;;;;;5.70;99.90;;;;;;5056825;28;19939;-73
2022/01/04 14:15:10;;;;;;;;;;;5.70;99.90;;;;;;5056157;28;19928;-72
2022/01/04 14:17:39;;;;;;;;;;;5.70;99.90;;;;;;5052824;28;19925;-73
2022/01/04 14:20:12;;;;;;;;;;;5.70;99.90;;;;;;5056659;28;20364;-72
2022/01/04 14:22:40;;;;;;;;;;;5.70;99.90;;;;;;5055526;28;19960;-71
2022/01/04 14:25:09;;;;;;;;;;;5.70;99.90;;;;;;5057718;28;20031;-71
2022/01/04 14:27:40;;;;;;;;;;;5.70;99.90;;;;;;5037609;28;19959;-72
2022/01/04 14:30:08;;;;;;;;;;;5.70;99.90;;;;;;5055279;28;20007;-73
2022/01/04 14:32:47;;;;;;;;;;;5.70;99.90;;;;;;5059521;28;20521;-73
2022/01/04 14:35:20;;;;;;;;;;;5.70;99.90;;;;;;5054666;28;20011;-74
2022/01/04 14:37:47;;;;;;;;;;;5.70;99.90;;;;;;5047555;28;19932;-71
2022/01/04 14:40:15;;;;;;;;;;;5.70;99.90;;;;;;5052764;28;19924;-71
2022/01/04 14:42:42;;;;;;;;;;;5.60;99.90;;;;;;5058936;28;20382;-71
2022/01/04 14:45:19;;;;;;;;;;;5.60;99.90;;;;;;5054101;28;19925;-71
2022/01/04 14:47:47;;;;;;;;;;;5.60;99.90;;;;;;5059366;28;19932;-71
2022/01/04 14:50:14;;;;;;;;;;;5.60;99.90;;;;;;5053125;28;19925;-72